createdAt,value
2022-11-05T16:00:44.213Z,98445.66
2022-11-05T16:03:28.459Z,98452.61
2022-11-05T16:06:02.208Z,98459.85
2022-11-05T16:08:30.087Z,98466.27
2022-11-05T16:11:05.428Z,98472.70
2022-11-05T16:13:43.219Z,98475.63
2022-11-05T16:16:23.567Z,98480.35
2022-11-05T16:18:57.230Z,98485.71
2022-11-05T16:21:25.235Z,98487.48
2022-11-05T16:23:58.232Z,98488.48
2022-11-05T16:29:37.119Z,98493.53
2022-11-05T16:32:29.520Z,98490.78
2022-11-05T16:34:59.962Z,98487.27
2022-11-05T16:37:34.203Z,98492.48
2022-11-05T16:40:02.121Z,98490.75
2022-11-05T16:42:44.208Z,98494.38
2022-11-05T16:45:13.869Z,98496.86
2022-11-05T16:47:48.228Z,98500.77
2022-11-05T16:50:23.210Z,98501.45
2022-11-05T16:52:57.260Z,98503.16
2022-11-05T16:55:24.925Z,98506.06
2022-11-05T16:58:06.653Z,98508.20
2022-11-05T17:00:40.736Z,98518.77
2022-11-05T17:03:14.644Z,98518.77
2022-11-05T17:05:48.233Z,98520.51
2022-11-05T17:08:23.470Z,98523.54
2022-11-05T17:10:52.057Z,98528.64
2022-11-05T17:13:28.622Z,98533.72
2022-11-05T17:15:55.875Z,98539.96
2022-11-05T17:18:29.374Z,98544.15
2022-11-05T17:20:57.114Z,98540.15
2022-11-05T17:23:33.190Z,98539.10
2022-11-05T17:26:03.424Z,98540.86
2022-11-05T17:28:37.257Z,98549.39
2022-11-05T17:31:15.331Z,98550.73
2022-11-05T17:33:42.277Z,98548.70
2022-11-05T17:36:19.201Z,98549.42
2022-11-05T17:38:46.051Z,98550.52
2022-11-05T17:41:15.097Z,98551.24
2022-11-05T17:43:48.211Z,98553.42
2022-11-05T17:46:18.972Z,98551.08
2022-11-05T17:48:53.328Z,98550.38
2022-11-05T17:51:28.267Z,98551.25
2022-11-05T17:53:56.296Z,98553.27
2022-11-05T17:56:34.492Z,98557.15
2022-11-05T17:59:09.878Z,98557.38
2022-11-05T18:01:48.517Z,98553.95
2022-11-05T18:04:17.857Z,98553.10
2022-11-05T18:06:44.820Z,98556.35
2022-11-05T18:09:19.212Z,98559.29
2022-11-05T18:11:46.617Z,98560.83
2022-11-05T18:14:24.128Z,98559.91
2022-11-05T18:16:59.287Z,98562.89
2022-11-05T18:19:34.135Z,98567.87
2022-11-05T18:22:10.360Z,98569.49
